Time;durP1;ratioP1;P1;durP2;ratioP2;P2;SDS_P1;SDS_P2;PMS_P1;PMS_P2;Temp;Humidity;BMP_temperature;BMP_pressure;BME280_temperature;BME280_humidity;BME280_pressure;Samples;Min_cycle;Max_cycle;Signal;HPM_P1;HPM_P2
2022/09/27 00:00:47;;;;;;;5.40;3.90;;;;;21.20;98434.00;;;;2051462;28;20220;-67
2022/09/27 00:01:47;;;;;;;4.97;3.40;;;;;21.20;98433.00;;;;2051438;28;20228;-67
2022/09/27 00:02:48;;;;;;;4.60;3.80;;;;;21.20;98440.00;;;;2052251;28;20217;-67
2022/09/27 00:03:48;;;;;;;5.40;3.43;;;;;21.10;98430.00;;;;2052288;28;20256;-67
2022/09/27 00:04:48;;;;;;;4.10;3.60;;;;;21.20;98436.00;;;;2052291;28;20228;-67
2022/09/27 00:05:49;;;;;;;4.93;3.30;;;;;21.20;98427.00;;;;2051665;28;20211;-68
2022/09/27 00:06:49;;;;;;;5.70;3.40;;;;;21.10;98434.00;;;;2054896;28;20223;-67
2022/09/27 00:07:49;;;;;;;3.97;3.00;;;;;21.10;98437.00;;;;2051517;28;20274;-68
2022/09/27 00:08:50;;;;;;;3.80;3.20;;;;;21.10;98432.00;;;;2051486;28;20227;-67
2022/09/27 00:09:50;;;;;;;5.27;3.73;;;;;21.10;98436.00;;;;2050963;28;20227;-67
2022/09/27 00:10:58;;;;;;;5.50;3.43;;;;;21.10;98434.00;;;;2050891;28;20219;-67
2022/09/27 00:11:58;;;;;;;3.78;3.20;;;;;21.10;98440.00;;;;2050947;28;20710;-67
2022/09/27 00:12:58;;;;;;;4.30;3.27;;;;;21.10;98434.00;;;;2049016;28;20228;-67
2022/09/27 00:13:59;;;;;;;5.70;3.03;;;;;21.10;98438.00;;;;2048658;28;20313;-67
2022/09/27 00:15:00;;;;;;;3.33;2.70;;;;;21.10;98443.00;;;;2051303;28;20223;-67
2022/09/27 00:16:04;;;;;;;4.33;3.10;;;;;21.10;98441.00;;;;2051353;28;20574;-67
2022/09/27 00:17:04;;;;;;;3.88;3.22;;;;;21.10;98448.00;;;;2057902;28;21085;-67
2022/09/27 00:18:04;;;;;;;4.23;2.93;;;;;21.10;98448.00;;;;2058416;28;20220;-67
2022/09/27 00:19:16;;;;;;;5.97;3.03;;;;;21.10;98448.00;;;;2051752;28;20225;-68
2022/09/27 00:20:17;;;;;;;4.85;2.88;;;;;21.10;98453.00;;;;2051303;28;20223;-67
2022/09/27 00:21:17;;;;;;;3.83;2.70;;;;;21.10;98452.00;;;;2050852;28;20231;-67
2022/09/27 00:22:18;;;;;;;3.60;2.43;;;;;21.10;98454.00;;;;2050294;28;20212;-67
2022/09/27 00:23:18;;;;;;;4.63;2.93;;;;;21.10;98456.00;;;;2050796;28;20699;-67
2022/09/27 00:24:20;;;;;;;3.83;2.47;;;;;21.10;98456.00;;;;2051122;28;20216;-67
2022/09/27 00:25:21;;;;;;;3.45;2.40;;;;;21.10;98448.00;;;;2051461;28;20687;-67
2022/09/27 00:26:21;;;;;;;4.17;2.90;;;;;21.10;98459.00;;;;2051665;28;20235;-67
2022/09/27 00:27:21;;;;;;;3.43;2.57;;;;;21.10;98452.00;;;;2051607;28;20526;-67
2022/09/27 00:28:22;;;;;;;4.23;2.33;;;;;21.10;98457.00;;;;2051222;28;20227;-67
2022/09/27 00:29:22;;;;;;;4.47;2.50;;;;;21.10;98456.00;;;;2050939;28;20274;-67
2022/09/27 00:30:23;;;;;;;3.93;2.87;;;;;21.10;98453.00;;;;2050940;28;20275;-67
2022/09/27 00:31:30;;;;;;;3.30;2.50;;;;;21.10;98459.00;;;;2050546;28;20208;-68
2022/09/27 00:32:31;;;;;;;5.38;3.13;;;;;21.10;98461.00;;;;2051997;28;20226;-68
2022/09/27 00:33:31;;;;;;;3.50;2.20;;;;;21.10;98456.00;;;;2051971;28;20272;-68
2022/09/27 00:34:31;;;;;;;5.03;2.67;;;;;21.10;98459.00;;;;2052059;28;20242;-67
2022/09/27 00:35:32;;;;;;;3.33;2.20;;;;;21.10;98461.00;;;;2052130;28;20212;-67
2022/09/27 00:36:32;;;;;;;4.07;2.20;;;;;21.00;98467.00;;;;2050059;28;20211;-67
2022/09/27 00:37:32;;;;;;;3.47;2.50;;;;;21.00;98468.00;;;;2051298;28;20227;-67
2022/09/27 00:38:33;;;;;;;4.80;2.23;;;;;21.00;98466.00;;;;2051324;28;20207;-67
2022/09/27 00:39:33;;;;;;;4.33;1.90;;;;;21.10;98466.00;;;;2051052;28;20205;-67
2022/09/27 00:40:33;;;;;;;2.43;2.00;;;;;21.10;98460.00;;;;2051779;28;20216;-67
2022/09/27 00:41:34;;;;;;;3.23;2.00;;;;;21.10;98461.00;;;;2051796;28;20221;-67
2022/09/27 00:42:35;;;;;;;4.03;2.23;;;;;21.10;98463.00;;;;2051721;28;20290;-67
2022/09/27 00:43:58;;;;;;;3.93;2.60;;;;;21.10;98465.00;;;;2052481;28;20242;-67
2022/09/27 00:45:12;;;;;;;4.35;2.30;;;;;21.00;98474.00;;;;2051674;28;20585;-67
2022/09/27 00:46:14;;;;;;;3.33;1.98;;;;;21.00;98469.00;;;;2052985;28;20211;-67
2022/09/27 00:47:24;;;;;;;3.05;2.10;;;;;21.00;98477.00;;;;2058525;28;20287;-67
2022/09/27 00:48:26;;;;;;;3.65;2.40;;;;;21.00;98470.00;;;;2050468;28;20630;-67
2022/09/27 00:49:52;;;;;;;3.05;1.70;;;;;21.00;98474.00;;;;2042693;28;20232;-67
2022/09/27 00:50:55;;;;;;;2.85;2.10;;;;;21.00;98461.00;;;;2057404;28;20233;-67
2022/09/27 00:52:22;;;;;;;2.90;2.10;;;;;21.00;98439.00;;;;2059926;28;20610;-67
2022/09/27 00:53:30;;;;;;;3.10;2.00;;;;;21.00;98472.00;;;;2048089;28;20743;-67
2022/09/27 00:54:30;;;;;;;5.93;2.05;;;;;21.00;98474.00;;;;2058405;28;20702;-67
2022/09/27 00:55:47;;;;;;;4.70;2.10;;;;;21.00;98468.00;;;;2058972;28;20216;-67
2022/09/27 00:56:48;;;;;;;3.17;2.03;;;;;21.00;98468.00;;;;2058547;28;20299;-67
2022/09/27 00:57:48;;;;;;;2.53;1.73;;;;;21.00;98474.00;;;;2050324;28;20393;-66
2022/09/27 00:58:54;;;;;;;3.77;2.10;;;;;21.00;98468.00;;;;2046494;29;20298;-67
2022/09/27 01:00:00;;;;;;;3.20;2.00;;;;;21.00;98469.00;;;;2051806;28;20212;-67
2022/09/27 01:01:02;;;;;;;4.20;2.50;;;;;21.00;98469.00;;;;2048529;28;20216;-67
2022/09/27 01:02:03;;;;;;;3.65;2.00;;;;;21.00;98474.00;;;;2041995;28;20305;-67
2022/09/27 01:03:03;;;;;;;3.67;2.40;;;;;21.00;98467.00;;;;2043356;28;20201;-68
2022/09/27 01:04:09;;;;;;;2.30;1.80;;;;;21.00;98460.00;;;;2059217;28;20704;-67
2022/09/27 01:05:10;;;;;;;4.20;2.00;;;;;21.00;98463.00;;;;2051117;28;20211;-67
2022/09/27 01:06:11;;;;;;;2.50;1.92;;;;;21.00;98456.00;;;;2044370;28;20295;-67
2022/09/27 01:07:11;;;;;;;4.03;2.07;;;;;21.00;98472.00;;;;2058357;28;20206;-67
2022/09/27 01:08:11;;;;;;;3.90;2.20;;;;;21.00;98473.00;;;;2051019;28;20246;-67
2022/09/27 01:09:12;;;;;;;2.73;2.20;;;;;21.00;98469.00;;;;2050617;28;20212;-67
2022/09/27 01:10:13;;;;;;;3.97;2.17;;;;;21.00;98476.00;;;;2058072;28;20231;-67
2022/09/27 01:12:05;;;;;;;3.37;2.00;;;;;21.00;98305.00;;;;2058428;28;20238;-68
2022/09/27 01:13:18;;;;;;;2.55;2.03;;;;;21.00;98446.00;;;;2033008;29;20444;-67
2022/09/27 01:14:33;;;;;;;2.80;1.80;;;;;21.00;98466.00;;;;2049521;28;20224;-67
2022/09/27 01:15:40;;;;;;;4.70;1.95;;;;;21.00;98474.00;;;;2055356;28;20219;-67
2022/09/27 01:16:46;;;;;;;3.88;2.00;;;;;20.90;98465.00;;;;2060750;28;20289;-67
2022/09/27 01:18:06;;;;;;;3.30;1.63;;;;;21.00;98474.00;;;;2057863;28;20879;-67
2022/09/27 01:19:38;;;;;;;2.22;1.90;;;;;21.00;98467.00;;;;2054169;28;20266;-67
2022/09/27 01:20:44;;;;;;;2.35;2.15;;;;;21.00;98471.00;;;;2050375;28;20221;-67
2022/09/27 01:22:08;;;;;;;4.22;1.80;;;;;21.00;98473.00;;;;2049486;28;20738;-67
2022/09/27 01:23:14;;;;;;;2.85;2.30;;;;;21.00;98471.00;;;;2060682;28;20736;-67
2022/09/27 01:24:36;;;;;;;2.70;1.95;;;;;21.00;98477.00;;;;2056137;28;20307;-68
2022/09/27 01:25:58;;;;;;;3.05;1.98;;;;;20.90;98474.00;;;;2057951;28;20737;-68
2022/09/27 01:27:15;;;;;;;5.47;2.47;;;;;21.00;98500.00;;;;2054868;28;20211;-67
2022/09/27 01:28:31;;;;;;;3.13;2.28;;;;;21.00;98482.00;;;;2050630;28;20222;-68
2022/09/27 01:29:38;;;;;;;2.80;2.05;;;;;20.90;98482.00;;;;2058391;28;20218;-67
2022/09/27 01:30:52;;;;;;;3.45;2.55;;;;;20.90;98479.00;;;;2056931;28;20214;-67
2022/09/27 01:32:08;;;;;;;3.95;2.30;;;;;20.90;98479.00;;;;2048153;28;20659;-67
2022/09/27 01:33:33;;;;;;;3.85;2.15;;;;;20.90;98479.00;;;;2043467;28;20220;-67
2022/09/27 01:34:42;;;;;;;3.42;2.35;;;;;20.90;98480.00;;;;2057986;28;20218;-67
2022/09/27 01:35:49;;;;;;;4.63;2.50;;;;;20.90;98470.00;;;;2057295;28;20220;-67
2022/09/27 01:37:15;;;;;;;3.65;2.55;;;;;20.90;98468.00;;;;2054602;28;20222;-67
2022/09/27 01:38:32;;;;;;;3.75;2.72;;;;;20.90;98475.00;;;;2033232;29;20212;-68
2022/09/27 01:39:47;;;;;;;3.78;2.53;;;;;20.90;98477.00;;;;2050394;28;20222;-67
2022/09/27 01:41:03;;;;;;;5.00;2.35;;;;;20.90;98477.00;;;;2050416;28;20237;-67
2022/09/27 01:42:09;;;;;;;3.67;2.08;;;;;21.00;98475.00;;;;2051534;28;20765;-67
2022/09/27 01:43:19;;;;;;;3.25;2.15;;;;;20.90;98477.00;;;;2045828;29;20212;-67
2022/09/27 01:44:25;;;;;;;4.38;2.67;;;;;20.90;98479.00;;;;2041726;29;20299;-67
2022/09/27 01:45:29;;;;;;;5.53;2.47;;;;;20.90;98481.00;;;;2045128;29;20220;-67
2022/09/27 01:46:54;;;;;;;2.60;2.20;;;;;20.90;98404.00;;;;2034462;29;20216;-67
2022/09/27 01:47:56;;;;;;;3.15;2.30;;;;;20.90;98478.00;;;;2044809;28;20713;-67
2022/09/27 01:48:57;;;;;;;2.55;2.20;;;;;20.90;98473.00;;;;2047089;28;20248;-67
2022/09/27 01:50:02;;;;;;;3.97;2.53;;;;;20.90;98480.00;;;;2040777;29;20620;-67
2022/09/27 01:51:22;;;;;;;3.42;2.53;;;;;20.90;98445.00;;;;2057524;28;20202;-67
2022/09/27 01:52:26;;;;;;;3.22;2.50;;;;;20.90;98479.00;;;;2049427;28;20829;-67
2022/09/27 01:53:32;;;;;;;3.00;2.30;;;;;20.90;98489.00;;;;2041878;29;20282;-68
2022/09/27 01:54:38;;;;;;;3.88;2.10;;;;;20.90;98462.00;;;;2039214;29;20229;-67
2022/09/27 01:55:38;;;;;;;3.10;2.40;;;;;20.90;98482.00;;;;2053855;28;20219;-67
2022/09/27 01:56:51;;;;;;;3.93;2.40;;;;;20.90;98473.00;;;;2058188;28;20226;-67
2022/09/27 01:57:58;;;;;;;3.20;2.20;;;;;20.90;98471.00;;;;2056817;28;20246;-67
2022/09/27 01:59:07;;;;;;;3.85;2.47;;;;;20.80;98478.00;;;;2046057;28;20220;-68
2022/09/27 02:00:09;;;;;;;4.50;2.58;;;;;20.90;98476.00;;;;2042849;29;20604;-67
2022/09/27 02:01:10;;;;;;;2.92;2.03;;;;;20.90;98475.00;;;;2049355;28;20215;-67
2022/09/27 02:02:11;;;;;;;2.85;2.20;;;;;20.80;98478.00;;;;2045846;28;20756;-67
2022/09/27 02:03:17;;;;;;;2.50;2.17;;;;;20.80;98479.00;;;;2053742;28;20220;-68
2022/09/27 02:04:23;;;;;;;5.63;2.78;;;;;20.90;98452.00;;;;2057564;28;20314;-68
2022/09/27 02:05:27;;;;;;;3.13;2.40;;;;;20.90;98456.00;;;;2057414;28;20243;-67
2022/09/27 02:06:35;;;;;;;2.67;2.10;;;;;20.80;98482.00;;;;2057287;28;21116;-67
2022/09/27 02:07:52;;;;;;;3.30;2.40;;;;;20.80;98486.00;;;;2049065;28;20249;-67
2022/09/27 02:09:00;;;;;;;3.25;2.63;;;;;20.80;98481.00;;;;2051442;28;20223;-67
2022/09/27 02:10:24;;;;;;;4.03;2.20;;;;;20.80;98488.00;;;;2059996;28;20222;-67
2022/09/27 02:11:25;;;;;;;3.10;2.20;;;;;20.80;98486.00;;;;2047238;28;20223;-67
2022/09/27 02:12:29;;;;;;;2.63;2.43;;;;;20.80;98484.00;;;;2037591;29;20252;-68
2022/09/27 02:13:46;;;;;;;2.65;2.40;;;;;20.80;98458.00;;;;2050056;28;25044;-67
2022/09/27 02:14:54;;;;;;;2.63;2.10;;;;;20.80;98481.00;;;;2052583;28;20215;-67
2022/09/27 02:15:54;;;;;;;3.20;2.60;;;;;20.80;98483.00;;;;2055313;28;20624;-66
2022/09/27 02:16:59;;;;;;;4.00;2.77;;;;;20.80;98486.00;;;;2053070;28;20234;-67
2022/09/27 02:18:00;;;;;;;2.35;2.15;;;;;20.80;98485.00;;;;2044847;29;20235;-67
2022/09/27 02:19:17;;;;;;;2.75;2.20;;;;;20.80;98492.00;;;;2047667;28;20227;-67
2022/09/27 02:20:39;;;;;;;2.72;2.30;;;;;20.80;98493.00;;;;2061156;28;20215;-67
2022/09/27 02:21:46;;;;;;;3.60;2.13;;;;;20.80;98492.00;;;;2051115;28;20725;-67
2022/09/27 02:22:49;;;;;;;2.47;2.22;;;;;20.80;98442.00;;;;2051515;28;20228;-67
2022/09/27 02:23:52;;;;;;;2.63;2.20;;;;;20.80;98465.00;;;;2043956;29;20733;-67
2022/09/27 02:24:57;;;;;;;2.80;2.50;;;;;20.80;98483.00;;;;2047332;28;20223;-67
2022/09/27 02:26:00;;;;;;;3.58;2.38;;;;;20.80;98496.00;;;;2059087;28;20219;-67
2022/09/27 02:27:15;;;;;;;3.70;2.30;;;;;20.80;98505.00;;;;2052527;28;20765;-67
2022/09/27 02:28:27;;;;;;;3.42;2.30;;;;;20.80;98499.00;;;;2056946;28;20249;-67
2022/09/27 02:29:33;;;;;;;3.95;2.20;;;;;20.80;98487.00;;;;2059338;28;20653;-67
2022/09/27 02:30:33;;;;;;;3.83;2.20;;;;;20.80;98504.00;;;;2059681;28;20235;-67
2022/09/27 02:31:33;;;;;;;4.93;2.73;;;;;20.80;98496.00;;;;2051778;28;20798;-67
2022/09/27 02:32:34;;;;;;;3.40;2.30;;;;;20.80;98496.00;;;;2051202;28;20741;-68
2022/09/27 02:33:47;;;;;;;3.90;2.67;;;;;20.80;98481.00;;;;2051900;28;20219;-67
2022/09/27 02:34:48;;;;;;;2.80;2.20;;;;;20.80;98467.00;;;;2050956;28;20223;-67
2022/09/27 02:35:48;;;;;;;2.90;2.00;;;;;20.80;98499.00;;;;2048808;28;20349;-67
2022/09/27 02:36:49;;;;;;;3.13;2.27;;;;;20.80;98485.00;;;;2059107;28;20222;-67
2022/09/27 02:37:50;;;;;;;3.20;2.10;;;;;20.80;98502.00;;;;2046677;28;20264;-67
2022/09/27 02:38:50;;;;;;;3.05;2.10;;;;;20.80;98503.00;;;;2049231;28;20355;-67
2022/09/27 02:39:51;;;;;;;3.53;2.20;;;;;20.80;98499.00;;;;2052564;28;20216;-67
2022/09/27 02:40:51;;;;;;;2.57;2.20;;;;;20.80;98549.00;;;;2060130;28;20215;-67
2022/09/27 02:41:51;;;;;;;2.10;1.90;;;;;20.80;98509.00;;;;2059969;28;20220;-67
2022/09/27 02:42:52;;;;;;;2.60;2.03;;;;;20.80;98507.00;;;;2056327;28;20282;-67
2022/09/27 02:43:54;;;;;;;3.30;2.50;;;;;20.80;98478.00;;;;2060023;28;20223;-67
2022/09/27 02:44:55;;;;;;;5.07;2.13;;;;;20.80;98478.00;;;;2053803;28;20302;-67
2022/09/27 02:46:20;;;;;;;3.10;1.97;;;;;20.80;98515.00;;;;2048821;28;20212;-67
2022/09/27 02:47:48;;;;;;;2.20;2.00;;;;;20.80;98509.00;;;;2050082;28;20303;-67
2022/09/27 02:49:01;;;;;;;4.00;2.38;;;;;20.70;98514.00;;;;2051418;28;20578;-67
2022/09/27 02:50:29;;;;;;;2.78;2.33;;;;;20.70;98507.00;;;;2052264;28;20303;-67
2022/09/27 02:51:44;;;;;;;3.13;2.30;;;;;20.80;98513.00;;;;2052741;28;20212;-67
2022/09/27 02:52:57;;;;;;;2.80;2.00;;;;;20.80;98509.00;;;;2049717;28;20238;-67
2022/09/27 02:54:18;;;;;;;2.22;2.00;;;;;20.60;98514.00;;;;2051627;28;20235;-68
2022/09/27 02:55:25;;;;;;;3.08;1.73;;;;;20.80;98512.00;;;;2059169;28;20623;-67
2022/09/27 02:56:32;;;;;;;3.42;2.42;;;;;20.80;98517.00;;;;2058201;28;20306;-67
2022/09/27 02:57:46;;;;;;;3.42;1.90;;;;;20.80;98494.00;;;;2044379;28;20260;-68
2022/09/27 02:58:52;;;;;;;3.55;2.20;;;;;20.70;98517.00;;;;2053589;28;20617;-67
2022/09/27 03:00:09;;;;;;;1.90;1.80;;;;;20.70;98504.00;;;;2059573;28;20220;-67
2022/09/27 03:01:42;;;;;;;2.33;2.10;;;;;20.70;98518.00;;;;2053649;28;20827;-67
2022/09/27 03:03:33;;;;;;;3.50;2.20;;;;;20.70;98515.00;;;;2053786;28;20703;-67
2022/09/27 03:04:46;;;;;;;2.67;2.10;;;;;20.70;98520.00;;;;2030693;29;20269;-67
2022/09/27 03:05:52;;;;;;;5.07;2.17;;;;;20.70;98522.00;;;;2031357;29;20240;-67
2022/09/27 03:06:52;;;;;;;2.50;2.30;;;;;20.70;98526.00;;;;2042097;28;20290;-67
2022/09/27 03:07:53;;;;;;;2.40;2.20;;;;;20.70;98526.00;;;;2052001;28;20224;-67
2022/09/27 03:08:55;;;;;;;3.90;2.43;;;;;20.70;98529.00;;;;2059939;28;20267;-67
2022/09/27 03:09:56;;;;;;;3.97;2.33;;;;;20.70;98527.00;;;;2052764;28;20219;-67
2022/09/27 03:10:56;;;;;;;3.03;1.90;;;;;20.70;98425.00;;;;2052153;28;20580;-67
2022/09/27 03:11:57;;;;;;;2.93;2.20;;;;;20.70;98521.00;;;;2058972;28;20822;-68
2022/09/27 03:12:57;;;;;;;2.10;1.80;;;;;20.70;98523.00;;;;2059384;28;20223;-67
2022/09/27 03:13:57;;;;;;;2.80;2.00;;;;;20.70;98536.00;;;;2058821;28;20910;-67
2022/09/27 03:14:58;;;;;;;5.40;2.30;;;;;20.70;98537.00;;;;2059628;28;20223;-67
2022/09/27 03:15:59;;;;;;;3.80;2.45;;;;;20.60;98551.00;;;;2059712;28;20256;-68
2022/09/27 03:16:59;;;;;;;3.73;2.30;;;;;20.70;98523.00;;;;2059793;28;20219;-68
2022/09/27 03:18:00;;;;;;;3.40;2.10;;;;;20.70;98515.00;;;;2052582;28;20238;-67
2022/09/27 03:19:00;;;;;;;2.53;2.03;;;;;20.70;98524.00;;;;2051510;28;20219;-67
2022/09/27 03:20:01;;;;;;;4.23;2.70;;;;;20.70;98537.00;;;;2051692;28;20253;-67
2022/09/27 03:21:01;;;;;;;2.60;2.17;;;;;20.70;98522.00;;;;2051352;28;20270;-68
2022/09/27 03:22:01;;;;;;;2.97;2.03;;;;;20.70;98525.00;;;;2051574;28;20695;-67
2022/09/27 03:23:02;;;;;;;2.93;2.00;;;;;20.70;98525.00;;;;2052030;28;20224;-68
2022/09/27 03:24:02;;;;;;;3.43;2.17;;;;;20.70;98528.00;;;;2052613;28;20212;-68
2022/09/27 03:25:04;;;;;;;6.40;2.03;;;;;20.70;98528.00;;;;2052471;28;20227;-67
2022/09/27 03:26:04;;;;;;;2.90;2.45;;;;;20.70;98522.00;;;;2052561;28;20832;-67
2022/09/27 03:27:05;;;;;;;4.27;2.33;;;;;20.70;98531.00;;;;2052487;28;20226;-67
2022/09/27 03:28:05;;;;;;;3.87;2.60;;;;;20.70;98524.00;;;;2051837;28;20230;-67
2022/09/27 03:29:05;;;;;;;4.53;2.17;;;;;20.70;98523.00;;;;2051944;28;20219;-67
2022/09/27 03:30:06;;;;;;;2.20;2.00;;;;;20.70;98525.00;;;;2055476;28;20215;-67
2022/09/27 03:31:07;;;;;;;3.30;2.17;;;;;20.70;98521.00;;;;2055471;28;20255;-67
2022/09/27 03:32:07;;;;;;;3.20;2.43;;;;;20.70;98525.00;;;;2055045;28;20220;-68
2022/09/27 03:33:10;;;;;;;3.10;2.10;;;;;20.70;98528.00;;;;2051834;28;20504;-68
2022/09/27 03:34:11;;;;;;;4.55;2.00;;;;;20.70;98520.00;;;;2051887;28;20308;-67
2022/09/27 03:35:11;;;;;;;3.40;2.10;;;;;20.70;98525.00;;;;2059324;28;22560;-68
2022/09/27 03:36:12;;;;;;;2.50;2.10;;;;;20.70;98518.00;;;;2059605;28;20219;-67
2022/09/27 03:37:12;;;;;;;3.03;2.20;;;;;20.70;98528.00;;;;2059879;28;20247;-68
2022/09/27 03:38:13;;;;;;;3.70;2.30;;;;;20.70;98535.00;;;;2059865;28;20253;-67
2022/09/27 03:39:13;;;;;;;2.70;2.10;;;;;20.70;98534.00;;;;2052531;28;20215;-67
2022/09/27 03:40:13;;;;;;;2.90;2.20;;;;;20.70;98531.00;;;;2051882;28;20702;-67
2022/09/27 03:41:14;;;;;;;2.20;2.00;;;;;20.70;98534.00;;;;2051640;28;20298;-67
2022/09/27 03:42:14;;;;;;;1.93;1.80;;;;;20.70;98529.00;;;;2051406;28;20575;-67
2022/09/27 03:43:14;;;;;;;3.53;2.43;;;;;20.70;98531.00;;;;2059125;28;20779;-67
2022/09/27 03:44:15;;;;;;;2.80;2.00;;;;;20.70;98535.00;;;;2059603;28;20682;-67
2022/09/27 03:45:16;;;;;;;3.93;1.97;;;;;20.70;98530.00;;;;2055277;28;20223;-67
2022/09/27 03:46:16;;;;;;;2.50;1.90;;;;;20.70;98524.00;;;;2055308;28;20654;-68
2022/09/27 03:47:16;;;;;;;4.90;2.07;;;;;20.60;98530.00;;;;2052331;28;20223;-67
2022/09/27 03:48:17;;;;;;;3.70;2.10;;;;;20.70;98535.00;;;;2052130;28;20223;-68
2022/09/27 03:49:17;;;;;;;2.73;2.20;;;;;20.70;98540.00;;;;2051741;28;20769;-67
2022/09/27 03:50:18;;;;;;;3.07;1.70;;;;;20.70;98528.00;;;;2051368;28;20667;-67
2022/09/27 03:51:19;;;;;;;2.47;1.80;;;;;20.70;98536.00;;;;2051814;28;20220;-67
2022/09/27 03:52:19;;;;;;;3.20;1.73;;;;;20.70;98541.00;;;;2062028;28;20619;-67
2022/09/27 03:53:19;;;;;;;3.33;1.77;;;;;20.60;98536.00;;;;2059015;28;20929;-68
2022/09/27 03:54:20;;;;;;;3.37;2.00;;;;;20.60;98537.00;;;;2051255;28;20246;-67
2022/09/27 03:55:20;;;;;;;2.90;1.87;;;;;20.60;98540.00;;;;2051647;28;20234;-67
2022/09/27 03:56:20;;;;;;;2.50;2.20;;;;;20.60;98537.00;;;;2051701;28;20216;-67
2022/09/27 03:57:21;;;;;;;1.83;1.73;;;;;20.60;98526.00;;;;2052570;28;20238;-67
2022/09/27 03:58:21;;;;;;;3.03;2.00;;;;;20.60;98544.00;;;;2051965;28;20243;-67
2022/09/27 03:59:21;;;;;;;2.97;2.00;;;;;20.60;98536.00;;;;2052417;28;20649;-67
2022/09/27 04:00:23;;;;;;;4.40;2.00;;;;;20.60;98548.00;;;;2052472;28;20216;-67
2022/09/27 04:01:24;;;;;;;3.60;2.00;;;;;20.60;98542.00;;;;2056005;28;20239;-67
2022/09/27 04:02:28;;;;;;;3.25;2.20;;;;;20.60;98542.00;;;;2042476;28;20299;-68
2022/09/27 04:03:28;;;;;;;2.45;1.80;;;;;20.60;98542.00;;;;2049711;28;20716;-67
2022/09/27 04:04:28;;;;;;;3.50;2.10;;;;;20.60;98544.00;;;;2051800;28;20287;-67
2022/09/27 04:05:29;;;;;;;2.43;1.90;;;;;20.60;98542.00;;;;2052368;28;20220;-67
2022/09/27 04:06:29;;;;;;;2.07;1.87;;;;;20.60;98548.00;;;;2052298;28;20239;-67
2022/09/27 04:07:30;;;;;;;3.07;2.30;;;;;20.60;98535.00;;;;2052365;28;20246;-67
2022/09/27 04:08:30;;;;;;;2.10;1.90;;;;;20.60;98563.00;;;;2052069;28;20212;-67
2022/09/27 04:09:31;;;;;;;4.00;2.50;;;;;20.60;98543.00;;;;2047887;28;20639;-67
2022/09/27 04:10:31;;;;;;;3.73;2.33;;;;;20.60;98546.00;;;;2050159;28;20213;-67
2022/09/27 04:11:31;;;;;;;3.20;2.20;;;;;20.60;98536.00;;;;2050838;28;20291;-67
2022/09/27 04:12:32;;;;;;;2.93;2.63;;;;;20.60;98500.00;;;;2050583;28;20211;-67
2022/09/27 04:13:32;;;;;;;3.33;2.37;;;;;20.60;98549.00;;;;2053941;28;20315;-68
2022/09/27 04:14:32;;;;;;;2.80;2.30;;;;;20.60;98541.00;;;;2051072;28;20208;-68
2022/09/27 04:15:33;;;;;;;3.67;2.57;;;;;20.60;98545.00;;;;2058433;28;20211;-67
2022/09/27 04:16:34;;;;;;;2.20;2.00;;;;;20.60;98546.00;;;;2058246;28;20222;-68
2022/09/27 04:17:34;;;;;;;2.73;2.10;;;;;20.60;98496.00;;;;2054215;28;20207;-67
2022/09/27 04:18:34;;;;;;;2.83;2.53;;;;;20.60;98549.00;;;;2054771;28;20474;-68
2022/09/27 04:19:36;;;;;;;4.37;2.60;;;;;20.60;98554.00;;;;2051735;28;20711;-67
2022/09/27 04:20:36;;;;;;;3.22;2.88;;;;;20.60;98551.00;;;;2051512;28;20567;-67
2022/09/27 04:21:37;;;;;;;3.17;2.30;;;;;20.60;98547.00;;;;2050967;28;20290;-67
2022/09/27 04:22:39;;;;;;;2.13;1.93;;;;;20.60;98551.00;;;;2050574;28;20224;-68
2022/09/27 04:23:39;;;;;;;3.42;2.20;;;;;20.60;98538.00;;;;2050824;28;20227;-68
2022/09/27 04:24:40;;;;;;;3.13;2.43;;;;;20.60;98550.00;;;;2050669;28;20221;-67
2022/09/27 04:25:40;;;;;;;2.93;2.50;;;;;20.60;98553.00;;;;2051615;28;20212;-67
2022/09/27 04:26:40;;;;;;;2.43;2.23;;;;;20.60;98544.00;;;;2051662;28;20250;-68
2022/09/27 04:27:44;;;;;;;2.93;2.40;;;;;20.60;98563.00;;;;2051952;28;20212;-68
2022/09/27 04:28:45;;;;;;;4.35;2.20;;;;;20.60;98548.00;;;;2051690;28;20258;-67
2022/09/27 04:29:45;;;;;;;2.37;2.17;;;;;20.60;98522.00;;;;2050026;28;20278;-67
2022/09/27 04:30:46;;;;;;;3.90;2.60;;;;;20.60;98549.00;;;;2050936;28;20743;-67
2022/09/27 04:31:46;;;;;;;4.13;2.60;;;;;20.60;98559.00;;;;2050882;28;20303;-67
2022/09/27 04:32:47;;;;;;;2.60;2.30;;;;;20.60;98559.00;;;;2050561;28;20274;-67
2022/09/27 04:33:47;;;;;;;2.87;2.60;;;;;20.60;98568.00;;;;2052105;28;20216;-67
2022/09/27 04:37:25;;;;;;;2.83;2.35;;;;;20.60;98561.00;;;;2051234;28;20294;-68
2022/09/27 04:38:26;;;;;;;3.70;2.57;;;;;20.50;98561.00;;;;2051459;28;20223;-68
2022/09/27 04:39:26;;;;;;;2.20;2.00;;;;;20.60;98564.00;;;;2051463;28;20278;-67
2022/09/27 04:40:27;;;;;;;2.43;2.23;;;;;20.50;98558.00;;;;2051274;28;20230;-67
2022/09/27 04:41:27;;;;;;;3.50;2.40;;;;;20.50;98574.00;;;;2051324;28;20215;-67
2022/09/27 04:42:27;;;;;;;2.50;2.23;;;;;20.50;98565.00;;;;2050804;28;20278;-68
2022/09/27 04:43:28;;;;;;;4.57;2.10;;;;;20.60;98565.00;;;;2051159;28;20219;-67
2022/09/27 04:44:28;;;;;;;3.33;2.00;;;;;20.60;98567.00;;;;2051189;28;20215;-68
2022/09/27 04:45:29;;;;;;;2.50;2.00;;;;;20.50;98568.00;;;;2047512;28;20234;-68
2022/09/27 04:46:33;;;;;;;2.97;2.07;;;;;20.60;98548.00;;;;2058575;28;20222;-68
2022/09/27 04:47:34;;;;;;;2.53;2.10;;;;;20.60;98505.00;;;;2046239;28;20284;-68
2022/09/27 04:48:34;;;;;;;3.23;2.00;;;;;20.50;98512.00;;;;2042680;28;20803;-69
2022/09/27 04:49:34;;;;;;;3.93;2.10;;;;;20.50;98548.00;;;;2052201;28;20247;-67
2022/09/27 04:50:34;;;;;;;2.10;1.90;;;;;20.50;98581.00;;;;2059108;28;20211;-67
2022/09/27 04:51:35;;;;;;;3.40;2.10;;;;;20.50;98578.00;;;;2059235;28;20206;-67
2022/09/27 04:52:36;;;;;;;2.50;2.30;;;;;20.50;98566.00;;;;2054542;28;20212;-67
2022/09/27 04:53:36;;;;;;;3.90;2.20;;;;;20.50;98571.00;;;;2054492;28;20203;-67
2022/09/27 04:54:37;;;;;;;2.10;1.90;;;;;20.50;98577.00;;;;2050517;28;20267;-67
2022/09/27 04:55:37;;;;;;;3.53;2.10;;;;;20.50;98570.00;;;;2051090;28;20207;-68
2022/09/27 04:56:37;;;;;;;2.70;2.10;;;;;20.50;98578.00;;;;2051332;28;20240;-69
2022/09/27 04:57:38;;;;;;;2.37;2.10;;;;;20.50;98580.00;;;;2051717;28;20220;-68
2022/09/27 04:58:38;;;;;;;2.73;2.20;;;;;20.50;98579.00;;;;2051300;28;20280;-68
2022/09/27 04:59:40;;;;;;;3.30;2.40;;;;;20.50;98582.00;;;;2050692;28;20235;-68
2022/09/27 05:00:44;;;;;;;3.17;2.20;;;;;20.50;98581.00;;;;2051068;28;20243;-68
2022/09/27 05:01:44;;;;;;;3.88;2.25;;;;;20.50;98576.00;;;;2047727;28;20271;-68
2022/09/27 05:02:46;;;;;;;2.90;2.23;;;;;20.50;98577.00;;;;2049132;28;20220;-68
2022/09/27 05:03:46;;;;;;;3.35;2.17;;;;;20.50;98585.00;;;;2052023;28;20861;-69
2022/09/27 05:04:46;;;;;;;2.50;2.00;;;;;20.50;98583.00;;;;2058931;28;20218;-68
2022/09/27 05:05:47;;;;;;;2.93;2.60;;;;;20.50;98583.00;;;;2058690;28;20263;-69
2022/09/27 05:06:47;;;;;;;3.20;2.40;;;;;19.80;98577.00;;;;2051255;28;20231;-68
2022/09/27 05:07:47;;;;;;;2.57;1.97;;;;;20.50;98582.00;;;;2051280;28;20703;-68
2022/09/27 05:08:48;;;;;;;3.50;2.30;;;;;20.50;98540.00;;;;2051225;28;20705;-69
2022/09/27 05:09:48;;;;;;;2.40;2.20;;;;;20.50;98588.00;;;;2051058;28;20251;-68
2022/09/27 05:10:49;;;;;;;2.30;2.10;;;;;20.50;98593.00;;;;2051156;28;20226;-69
2022/09/27 05:11:49;;;;;;;2.80;2.30;;;;;20.50;98578.00;;;;2050103;28;20866;-69
2022/09/27 05:12:49;;;;;;;3.30;1.93;;;;;20.50;98588.00;;;;2058623;28;20958;-68
2022/09/27 05:13:50;;;;;;;8.83;2.73;;;;;20.50;98585.00;;;;2058993;28;20255;-68
2022/09/27 05:14:50;;;;;;;6.10;2.40;;;;;20.60;98596.00;;;;2051859;28;20228;-69
2022/09/27 05:15:51;;;;;;;2.40;1.93;;;;;20.60;98559.00;;;;2051754;28;20216;-69
2022/09/27 05:16:52;;;;;;;3.43;2.27;;;;;20.60;98591.00;;;;2051673;28;20224;-68
2022/09/27 05:17:53;;;;;;;2.33;2.10;;;;;20.60;98592.00;;;;2051450;28;20554;-69
2022/09/27 05:18:53;;;;;;;3.00;2.30;;;;;20.60;98594.00;;;;2058418;28;20266;-69
2022/09/27 05:19:54;;;;;;;3.53;1.90;;;;;20.70;98556.00;;;;2058536;28;20218;-69
2022/09/27 05:20:55;;;;;;;4.33;1.80;;;;;20.70;98590.00;;;;2050998;28;20642;-68
2022/09/27 05:21:56;;;;;;;6.10;2.03;;;;;20.60;98605.00;;;;2051320;28;20212;-69
2022/09/27 05:22:56;;;;;;;2.17;1.93;;;;;20.70;98602.00;;;;2051920;28;20218;-68
2022/09/27 05:23:57;;;;;;;2.63;1.80;;;;;20.70;98420.00;;;;2052167;28;20216;-68
2022/09/27 05:24:57;;;;;;;1.70;1.60;;;;;20.70;98601.00;;;;2051961;28;20231;-68
2022/09/27 05:25:57;;;;;;;3.00;1.80;;;;;20.70;98602.00;;;;2049716;28;20491;-68